Terminal Aerodrome Forecast
Issued by NWS Omaha/Valley, NE

Home | Current Version | Previous Version | Graphics & Text | Print | Product List | Glossary On
Versions: 1 2 3 4 5 6 7 8 9 10 11 12 13 14 15 16 17 18 19 20 21 22 23 24 25 26 27 28 29 30 31 32 33 34 35
232
FTUS43 KOAX 190320 AAA
TAFOFK
TAF AMD
KOFK 190320Z 1903/1924 13004KT 5SM BR SKC
      TEMPO 1903/1907 1 1/2SM BR
     FM190700 14006KT 1SM BR SCT003
     FM191500 16017KT P6SM SCT025
     FM191800 16018G25KT P6SM SCT025=

USA.gov is the U.S. government's official web portal to all federal, state and local government web resources and services.